createdAt,value
2022-09-21T00:43:49.831Z,80.19
2022-09-21T01:34:23.627Z,81.00
2022-09-21T02:24:01.189Z,81.25
2022-09-21T03:25:22.441Z,81.66
2022-09-21T03:28:45.999Z,82.08
2022-09-21T03:44:41.546Z,81.98
2022-09-21T03:54:24.819Z,82.32
2022-09-21T04:14:54.398Z,82.79
2022-09-21T04:24:19.224Z,83.11
2022-09-21T04:27:23.959Z,82.74
2022-09-21T04:30:44.358Z,82.85
2022-09-21T04:36:18.618Z,82.56
2022-09-21T04:39:12.271Z,82.88
2022-09-21T04:41:58.721Z,82.72
2022-09-21T04:45:04.157Z,82.61
2022-09-21T04:55:09.672Z,82.68
2022-09-21T05:17:36.796Z,82.36
2022-09-21T05:23:51.096Z,82.74
2022-09-21T05:26:26.318Z,82.60
2022-09-21T05:28:59.531Z,82.70
2022-09-21T05:32:10.702Z,82.39
2022-09-21T05:38:05.766Z,82.45
2022-09-21T05:41:07.538Z,82.16
2022-09-21T05:43:34.427Z,83.34
2022-09-21T05:46:18.555Z,82.79
2022-09-21T05:49:13.947Z,82.76
2022-09-21T05:52:48.145Z,82.75
2022-09-21T05:55:04.551Z,82.72
2022-09-21T05:57:47.449Z,82.25
2022-09-21T06:00:19.930Z,83.02
2022-09-21T06:03:25.815Z,82.87
2022-09-21T06:05:52.697Z,83.01
2022-09-21T06:08:23.296Z,82.79
2022-09-21T06:10:52.843Z,83.00
2022-09-21T06:13:31.183Z,83.35
2022-09-21T06:16:06.570Z,82.82
2022-09-21T06:18:39.502Z,82.96
2022-09-21T06:21:08.824Z,83.40
2022-09-21T06:23:35.863Z,83.57
2022-09-21T06:26:06.087Z,83.24
2022-09-21T06:28:36.295Z,83.55
2022-09-21T06:31:11.119Z,83.72
2022-09-21T06:33:43.826Z,83.49
2022-09-21T06:36:19.327Z,83.70
2022-09-21T06:38:48.202Z,83.92
2022-09-21T06:41:21.544Z,83.92
2022-09-21T06:43:56.648Z,83.79
2022-09-21T06:46:28.797Z,83.68
2022-09-21T06:48:58.939Z,83.88
2022-09-21T06:51:27.886Z,84.24
2022-09-21T06:54:02.584Z,84.73
2022-09-21T06:56:29.645Z,84.94
2022-09-21T06:59:18.270Z,84.88
2022-09-21T07:01:51.867Z,85.44
2022-09-21T07:04:29.402Z,85.51
2022-09-21T07:07:04.557Z,85.65
2022-09-21T07:12:40.947Z,86.39
2022-09-21T07:15:13.853Z,86.21
2022-09-21T07:17:43.837Z,86.49
2022-09-21T07:20:13.880Z,86.96
2022-09-21T07:22:47.357Z,86.99
2022-09-21T07:25:18.787Z,87.21
2022-09-21T07:27:56.234Z,87.14
2022-09-21T07:30:29.712Z,87.73
2022-09-21T07:32:56.917Z,87.77
2022-09-21T07:35:26.516Z,88.06
2022-09-21T07:37:53.442Z,88.44
2022-09-21T07:40:24.865Z,88.67
2022-09-21T07:43:09.070Z,88.60
2022-09-21T07:45:37.329Z,88.79
2022-09-21T07:48:08.549Z,89.07
2022-09-21T07:50:39.651Z,89.28
2022-09-21T07:53:09.240Z,89.70
2022-09-21T07:55:41.064Z,89.88
2022-09-21T07:58:08.031Z,89.86
2022-09-21T08:00:48.950Z,89.95
2022-09-21T08:03:28.966Z,90.01
2022-09-21T08:06:06.241Z,90.29
2022-09-21T08:08:39.277Z,89.99
2022-09-21T08:11:10.177Z,90.10
2022-09-21T08:13:37.530Z,90.31
2022-09-21T08:16:10.289Z,90.06
2022-09-21T08:18:41.943Z,90.07
2022-09-21T08:21:22.062Z,89.72
2022-09-21T08:24:04.692Z,89.42
2022-09-21T08:27:04.672Z,89.80
2022-09-21T08:29:33.964Z,89.28
2022-09-21T08:32:22.830Z,89.03
2022-09-21T08:37:46.039Z,88.47
2022-09-21T08:40:34.031Z,87.65
2022-09-21T08:43:15.986Z,87.53
2022-09-21T08:45:48.287Z,87.06
2022-09-21T08:48:36.521Z,86.52
2022-09-21T08:51:12.277Z,85.55
2022-09-21T08:53:55.621Z,84.49
2022-09-21T08:56:53.330Z,83.31
2022-09-21T08:59:20.858Z,82.82
2022-09-21T09:02:04.974Z,81.52
2022-09-21T09:04:56.717Z,80.21
2022-09-21T09:07:29.465Z,77.13
2022-09-21T09:10:26.441Z,79.08
2022-09-21T09:13:31.678Z,78.42
2022-09-21T09:16:17.604Z,77.44
2022-09-21T09:19:03.168Z,77.76
2022-09-21T09:21:51.204Z,77.30
2022-09-21T09:24:47.814Z,75.49
2022-09-21T09:27:27.401Z,75.83
2022-09-21T09:30:07.038Z,75.48
2022-09-21T09:33:03.724Z,74.93
2022-09-21T09:36:40.187Z,73.02
2022-09-21T09:39:45.665Z,73.84
2022-09-21T09:43:05.418Z,72.20
2022-09-21T09:46:31.739Z,72.10
2022-09-21T09:52:39.787Z,69.14
2022-09-21T09:55:27.811Z,68.52
2022-09-21T09:58:39.039Z,66.37
2022-09-21T10:01:42.974Z,65.48
2022-09-21T10:04:23.440Z,65.99
2022-09-21T10:08:55.250Z,65.27
2022-09-21T10:10:53.032Z,62.79
2022-09-21T10:16:49.847Z,65.09
2022-09-21T10:19:33.211Z,66.54
2022-09-21T10:22:26.718Z,65.34
2022-09-21T10:28:09.229Z,60.43
2022-09-21T10:31:13.499Z,58.77
2022-09-21T10:34:37.553Z,57.28
2022-09-21T10:41:08.646Z,54.94
2022-09-21T10:43:49.888Z,51.05
2022-09-21T10:49:57.514Z,48.33
2022-09-21T10:56:04.775Z,47.22
2022-09-21T10:59:49.581Z,42.50
2022-09-21T11:03:05.662Z,43.05
2022-09-21T11:06:00.523Z,42.06
2022-09-21T11:15:52.281Z,41.95
2022-09-21T11:18:16.241Z,40.33
2022-09-21T11:27:13.204Z,40.49
2022-09-21T12:00:33.452Z,30.73
2022-09-21T12:03:35.990Z,29.68
2022-09-21T12:13:26.359Z,32.72
2022-09-21T12:19:34.434Z,35.29
2022-09-21T12:22:44.957Z,35.68
2022-09-21T12:25:32.951Z,36.92
2022-09-21T12:28:20.089Z,36.26
2022-09-21T12:31:06.881Z,37.09
2022-09-21T12:37:41.550Z,38.34
2022-09-21T12:40:41.951Z,38.92
2022-09-21T12:43:46.240Z,38.67
2022-09-21T12:46:47.306Z,37.86
2022-09-21T12:52:37.875Z,38.15
2022-09-21T12:55:48.157Z,37.66
2022-09-21T12:58:45.360Z,38.86
2022-09-21T13:01:42.585Z,38.97
2022-09-21T13:08:01.561Z,39.10
2022-09-21T13:11:13.024Z,39.17
2022-09-21T13:20:37.599Z,38.34
2022-09-21T13:26:57.993Z,39.41
2022-09-21T13:30:00.782Z,37.14
2022-09-21T13:36:32.868Z,35.62
2022-09-21T13:49:04.855Z,36.02
2022-09-21T13:52:16.971Z,34.50
2022-09-21T13:55:01.134Z,34.75
2022-09-21T13:58:03.882Z,32.38
2022-09-21T14:01:03.161Z,31.64
2022-09-21T14:04:12.469Z,30.81
2022-09-21T14:10:18.203Z,31.19
2022-09-21T14:19:59.412Z,27.09
2022-09-21T14:33:27.625Z,25.87
2022-09-21T14:36:18.855Z,26.69
2022-09-21T14:39:39.237Z,25.10
2022-09-21T14:56:20.029Z,27.11
2022-09-21T14:59:15.732Z,26.20
2022-09-21T15:06:08.855Z,26.15
2022-09-21T15:09:20.161Z,24.54
2022-09-21T15:12:31.645Z,23.80
2022-09-21T15:15:28.515Z,25.93
2022-09-21T15:18:27.426Z,26.32
2022-09-21T15:31:29.661Z,24.46
2022-09-21T15:37:15.486Z,25.95
2022-09-21T15:39:42.471Z,25.74
2022-09-21T15:42:24.979Z,25.66
2022-09-21T15:45:10.434Z,25.89
2022-09-21T15:47:38.275Z,25.80
2022-09-21T15:50:05.749Z,25.75
2022-09-21T15:52:37.618Z,26.55
2022-09-21T15:55:11.962Z,26.78
2022-09-21T15:57:41.428Z,26.90
2022-09-21T16:00:24.380Z,27.73
2022-09-21T16:03:01.698Z,28.16
2022-09-21T16:05:31.111Z,28.19
2022-09-21T16:08:06.441Z,28.79
2022-09-21T16:10:39.272Z,29.52
2022-09-21T16:13:15.448Z,30.76
2022-09-21T16:16:00.986Z,31.16
2022-09-21T16:18:39.757Z,31.33
2022-09-21T16:21:16.059Z,31.28
2022-09-21T16:23:43.224Z,31.55
2022-09-21T16:26:19.051Z,32.36
2022-09-21T16:28:46.442Z,34.25
2022-09-21T16:31:35.157Z,36.64
2022-09-21T16:34:05.241Z,36.25
2022-09-21T16:36:40.415Z,37.51
2022-09-21T16:39:15.711Z,36.99
2022-09-21T16:41:53.053Z,38.56
2022-09-21T16:44:22.655Z,38.65
2022-09-21T16:46:55.945Z,40.41
2022-09-21T17:13:24.489Z,47.53
2022-09-21T17:15:58.445Z,47.59
2022-09-21T17:18:25.729Z,47.94
2022-09-21T17:20:53.878Z,48.05
2022-09-21T17:23:23.321Z,48.81
2022-09-21T17:25:50.679Z,49.07
2022-09-21T17:28:22.739Z,49.46
2022-09-21T17:30:51.454Z,49.88
2022-09-21T17:33:18.947Z,49.97
2022-09-21T17:36:31.368Z,50.57
2022-09-21T17:39:12.257Z,50.13
2022-09-21T17:58:32.237Z,52.98
2022-09-21T18:01:05.285Z,53.00
2022-09-21T18:03:34.809Z,53.90
2022-09-21T18:06:04.910Z,54.59
2022-09-21T18:08:44.426Z,55.04
2022-09-21T18:11:29.176Z,55.86
2022-09-21T18:14:11.059Z,56.33
2022-09-21T18:16:45.761Z,56.82
2022-09-21T18:19:36.983Z,57.12
2022-09-21T18:22:14.137Z,56.96
2022-09-21T18:24:42.497Z,57.27
2022-09-21T18:27:13.888Z,58.26
2022-09-21T18:29:43.730Z,58.35
2022-09-21T18:32:27.813Z,58.41
2022-09-21T18:35:16.633Z,59.19
2022-09-21T18:37:54.334Z,59.44
2022-09-21T18:40:28.363Z,59.43
2022-09-21T18:43:04.736Z,59.76
2022-09-21T18:45:40.546Z,59.96
2022-09-21T18:48:19.660Z,60.66
2022-09-21T18:50:54.690Z,61.11
2022-09-21T18:53:31.378Z,61.21
2022-09-21T18:55:58.712Z,61.34
2022-09-21T18:58:26.291Z,61.59
2022-09-21T19:00:57.367Z,61.49
2022-09-21T19:03:28.880Z,62.13
2022-09-21T19:06:12.487Z,62.72
2022-09-21T19:08:44.828Z,62.94
2022-09-21T19:11:21.870Z,63.39
2022-09-21T19:13:56.502Z,63.52
2022-09-21T19:16:37.073Z,63.84
2022-09-21T19:19:16.852Z,63.85
2022-09-21T19:21:50.482Z,63.97
2022-09-21T19:24:24.600Z,64.07
2022-09-21T19:27:14.394Z,63.89
2022-09-21T19:29:51.243Z,64.13
2022-09-21T19:32:30.169Z,64.69
2022-09-21T19:35:11.677Z,65.19
2022-09-21T19:37:39.461Z,65.64
2022-09-21T19:40:10.684Z,66.56
2022-09-21T19:42:46.637Z,66.39
2022-09-21T19:45:22.447Z,66.58
2022-09-21T19:48:03.676Z,67.19
2022-09-21T19:50:40.799Z,67.29
2022-09-21T19:53:11.282Z,67.82
2022-09-21T19:55:43.549Z,68.44
2022-09-21T19:58:11.253Z,68.54
2022-09-21T20:00:48.266Z,68.44
2022-09-21T20:03:25.227Z,68.61
2022-09-21T20:06:12.242Z,69.25
2022-09-21T20:08:45.915Z,69.37
2022-09-21T20:11:19.017Z,69.04
2022-09-21T20:14:00.357Z,69.18
2022-09-21T20:16:38.366Z,68.79
2022-09-21T20:19:17.751Z,68.92
2022-09-21T20:21:45.726Z,69.08
2022-09-21T20:24:21.124Z,68.91
2022-09-21T20:26:51.015Z,69.72
2022-09-21T20:29:19.163Z,69.62
2022-09-21T20:31:46.909Z,69.47
2022-09-21T20:34:16.090Z,69.93
2022-09-21T20:36:43.215Z,69.48
2022-09-21T20:39:14.726Z,69.58
2022-09-21T20:41:41.392Z,70.22
2022-09-21T20:44:12.271Z,68.99
2022-09-21T20:46:39.019Z,69.60
2022-09-21T20:49:06.171Z,69.77
2022-09-21T20:51:36.421Z,70.04
2022-09-21T20:54:03.885Z,70.35
2022-09-21T20:56:33.513Z,70.48
2022-09-21T20:59:00.272Z,70.81
2022-09-21T21:01:27.010Z,71.14
2022-09-21T21:03:55.833Z,71.03
2022-09-21T21:06:24.736Z,70.95
2022-09-21T21:08:55.840Z,71.11
2022-09-21T21:11:22.965Z,71.14
2022-09-21T21:13:49.660Z,71.47
2022-09-21T21:16:16.326Z,71.26
2022-09-21T21:18:43.258Z,71.21
2022-09-21T21:21:10.220Z,71.84
2022-09-21T21:23:36.945Z,71.61
2022-09-21T21:26:05.977Z,72.00
2022-09-21T21:28:33.991Z,72.16
2022-09-21T21:31:06.455Z,72.22
2022-09-21T21:33:33.205Z,72.69
2022-09-21T21:36:04.347Z,72.91
2022-09-21T21:38:31.060Z,72.47
2022-09-21T21:40:57.926Z,72.80
2022-09-21T21:43:32.746Z,72.99
2022-09-21T21:46:02.500Z,73.11
2022-09-21T21:48:30.966Z,73.18
2022-09-21T21:51:01.717Z,73.14
2022-09-21T21:53:31.976Z,73.95
2022-09-21T21:56:03.624Z,73.91
2022-09-21T21:58:32.312Z,73.65
2022-09-21T22:01:07.407Z,73.71
2022-09-21T22:03:34.267Z,73.94
2022-09-21T22:06:03.031Z,74.05
2022-09-21T22:08:30.375Z,74.06
2022-09-21T22:10:57.123Z,74.46
2022-09-21T22:13:26.608Z,74.10
2022-09-21T22:15:54.735Z,74.28
2022-09-21T22:18:21.659Z,74.26
2022-09-21T22:20:48.449Z,74.35
2022-09-21T22:23:15.422Z,74.40
2022-09-21T22:25:42.103Z,74.25
2022-09-21T22:28:08.826Z,74.33
2022-09-21T22:30:35.502Z,74.06
2022-09-21T22:33:03.799Z,74.38
2022-09-21T22:35:32.475Z,74.15
2022-09-21T22:37:59.218Z,74.43
2022-09-21T22:40:25.981Z,74.50
2022-09-21T22:42:52.980Z,74.73
2022-09-21T22:45:19.643Z,74.84
2022-09-21T22:47:46.593Z,74.40
2022-09-21T22:50:14.971Z,74.82
2022-09-21T22:52:41.647Z,75.01
2022-09-21T22:55:10.266Z,74.77
2022-09-21T22:57:36.975Z,74.92
2022-09-21T23:00:04.883Z,74.68
2022-09-21T23:02:31.493Z,75.10
2022-09-21T23:04:58.142Z,75.14
2022-09-21T23:07:26.629Z,75.17
2022-09-21T23:09:53.398Z,75.34
2022-09-21T23:12:20.084Z,75.26
2022-09-21T23:14:47.002Z,75.64
2022-09-21T23:17:14.915Z,75.61
2022-09-21T23:19:41.563Z,75.57
2022-09-21T23:22:09.034Z,75.64
2022-09-21T23:24:37.089Z,75.81
2022-09-21T23:27:04.076Z,76.03
2022-09-21T23:29:31.211Z,76.07
2022-09-21T23:31:57.932Z,76.15
2022-09-21T23:34:24.855Z,76.23
2022-09-21T23:36:51.520Z,76.47
2022-09-21T23:39:18.167Z,76.43
2022-09-21T23:41:46.260Z,76.39
2022-09-21T23:44:12.958Z,76.61
2022-09-21T23:46:43.002Z,76.61
2022-09-21T23:49:12.508Z,76.66
2022-09-21T23:51:40.124Z,76.70
2022-09-21T23:54:07.283Z,76.73
2022-09-21T23:56:35.041Z,76.79
2022-09-21T23:59:03.986Z,76.69
